Time,TemperatureF,DewpointF,PressureIn,WindDirection,WindDirectionDegrees,WindSpeedMPH,WindSpeedGustMPH,Humidity,HourlyPrecipIn,Conditions,Clouds,dailyrainin,SolarRadiationWatts/m^2,SoftwareType,DateUTC
2015-03-28 00:02:00,49.2,43.0,30.14,North,355,1.1,1.1,79,0.00,CLR,SCT,0.00,0.0,WeatherDisplay:10.37,2015-03-28 07:02:00,
2015-03-28 00:07:00,49.1,42.9,30.15,North,355,1.1,0.0,79,0.00,CLR,SCT,0.00,0.0,WeatherDisplay:10.37,2015-03-28 07:07:00,
2015-03-28 00:12:00,49.1,42.9,30.15,North,355,0.0,0.0,79,0.00,CLR,SCT,0.00,0.0,WeatherDisplay:10.37,2015-03-28 07:12:00,
2015-03-28 00:17:00,49.0,42.8,30.15,North,355,0.0,0.0,79,0.00,CLR,SCT,0.00,0.0,WeatherDisplay:10.37,2015-03-28 07:17:00,
2015-03-28 00:22:00,49.0,42.8,30.15,North,355,0.0,0.0,79,0.00,CLR,SCT,0.00,0.0,WeatherDisplay:10.37,2015-03-28 07:22:00,
2015-03-28 00:27:00,49.0,42.8,30.15,North,355,0.0,0.0,79,0.00,CLR,SCT,0.00,0.0,WeatherDisplay:10.37,2015-03-28 07:27:00,
2015-03-28 00:32:00,49.0,42.8,30.15,North,355,0.0,0.0,79,0.00,CLR,SCT,0.00,0.0,WeatherDisplay:10.37,2015-03-28 07:32:00,
2015-03-28 00:37:00,48.9,42.7,30.15,North,355,0.0,0.0,79,0.00,CLR,SCT,0.00,0.0,WeatherDisplay:10.37,2015-03-28 07:37:00,
2015-03-28 00:42:00,48.9,43.0,30.15,North,355,0.0,0.0,80,0.00,CLR,SCT,0.00,0.0,WeatherDisplay:10.37,2015-03-28 07:42:00,
2015-03-28 00:47:00,48.8,42.9,30.15,North,355,1.1,1.1,80,0.00,CLR,SCT,0.00,0.0,WeatherDisplay:10.37,2015-03-28 07:47:00,
2015-03-28 00:52:00,48.7,42.8,30.15,North,355,1.1,0.0,80,0.00,CLR,SCT,0.00,0.0,WeatherDisplay:10.37,2015-03-28 07:52:00,
2015-03-28 00:57:00,48.6,42.4,30.15,North,355,1.1,1.1,79,0.00,CLR,SCT,0.00,0.0,WeatherDisplay:10.37,2015-03-28 07:57:00,
2015-03-28 01:02:00,48.4,42.5,30.15,North,355,2.3,2.3,80,0.00,CLR,SCT,0.00,0.0,WeatherDisplay:10.37,2015-03-28 08:02:00,
2015-03-28 01:07:00,48.2,42.3,30.15,North,355,1.1,1.1,80,0.00,CLR,SCT,0.00,0.0,WeatherDisplay:10.37,2015-03-28 08:07:00,
2015-03-28 01:12:00,47.9,42.3,30.15,North,355,2.3,2.3,81,0.00,CLR,SCT,0.00,0.0,WeatherDisplay:10.37,2015-03-28 08:12:00,
2015-03-28 01:17:00,47.8,42.3,30.15,North,355,2.3,2.3,81,0.00,CLR,SCT,0.00,0.0,WeatherDisplay:10.37,2015-03-28 08:17:00,
2015-03-28 01:22:00,47.6,42.1,30.15,North,355,2.3,2.3,81,0.00,CLR,SCT,0.00,0.0,WeatherDisplay:10.37,2015-03-28 08:22:00,
2015-03-28 01:27:00,47.5,42.0,30.15,North,355,2.0,2.0,81,0.00,CLR,SCT,0.00,0.0,WeatherDisplay:10.37,2015-03-28 08:27:00,
2015-03-28 01:32:00,47.3,42.1,30.15,North,355,1.1,1.1,82,0.00,CLR,SCT,0.00,0.0,WeatherDisplay:10.37,2015-03-28 08:32:00,
2015-03-28 01:37:00,47.2,42.0,30.15,North,355,1.1,1.1,82,0.00,CLR,SCT,0.00,0.0,WeatherDisplay:10.37,2015-03-28 08:37:00,
2015-03-28 01:42:00,47.1,41.9,30.15,North,355,0.0,0.0,82,0.00,CLR,SCT,0.00,0.0,WeatherDisplay:10.37,2015-03-28 08:42:00,
2015-03-28 01:47:00,47.1,41.9,30.15,North,355,1.1,1.1,82,0.00,CLR,SCT,0.00,0.0,WeatherDisplay:10.37,2015-03-28 08:47:00,
2015-03-28 01:52:00,47.0,41.8,30.15,North,355,1.1,1.1,82,0.00,CLR,SCT,0.00,0.0,WeatherDisplay:10.37,2015-03-28 08:52:00,
2015-03-28 01:57:00,46.9,42.0,30.15,North,355,2.3,2.3,83,0.00,CLR,SCT,0.00,0.0,WeatherDisplay:10.37,2015-03-28 08:57:00,
2015-03-28 02:02:00,46.9,41.7,30.15,North,355,0.0,0.0,82,0.00,CLR,SCT,0.00,0.0,WeatherDisplay:10.37,2015-03-28 09:02:00,
2015-03-28 02:07:00,46.9,41.7,30.15,North,355,2.3,0.0,82,0.00,CLR,SCT,0.00,0.0,WeatherDisplay:10.37,2015-03-28 09:07:00,
2015-03-28 02:12:00,46.9,41.7,30.15,North,355,1.1,1.1,82,0.00,CLR,SCT,0.00,0.0,WeatherDisplay:10.37,2015-03-28 09:12:00,
2015-03-28 02:17:00,46.9,41.7,30.15,North,355,2.3,2.3,82,0.00,CLR,SCT,0.00,0.0,WeatherDisplay:10.37,2015-03-28 09:17:00,
2015-03-28 02:22:00,46.8,41.6,30.15,NNW,331,2.3,2.3,82,0.00,CLR,SCT,0.00,0.0,WeatherDisplay:10.37,2015-03-28 09:22:00,
2015-03-28 02:27:00,46.8,41.6,30.15,NNW,331,3.5,3.5,82,0.00,CLR,SCT,0.00,0.0,WeatherDisplay:10.37,2015-03-28 09:27:00,
2015-03-28 02:32:00,46.7,41.5,30.15,NNW,331,2.3,2.3,82,0.00,CLR,SCT,0.00,0.0,WeatherDisplay:10.37,2015-03-28 09:32:00,
2015-03-28 02:37:00,46.5,41.3,30.15,NNW,331,1.1,1.1,82,0.00,CLR,SCT,0.00,0.0,WeatherDisplay:10.37,2015-03-28 09:37:00,
2015-03-28 02:42:00,46.4,41.2,30.15,NNW,331,2.3,2.3,82,0.00,CLR,SCT,0.00,0.0,WeatherDisplay:10.37,2015-03-28 09:42:00,
2015-03-28 02:47:00,46.4,41.5,30.15,NNW,331,2.3,2.3,83,0.00,CLR,SCT,0.00,0.0,WeatherDisplay:10.37,2015-03-28 09:47:00,
2015-03-28 02:52:00,46.4,41.2,30.15,NNW,331,1.1,0.0,82,0.00,CLR,SCT,0.00,0.0,WeatherDisplay:10.37,2015-03-28 09:52:00,
2015-03-28 02:57:00,46.3,41.1,30.14,NNW,331,1.1,1.1,82,0.00,CLR,SCT,0.00,0.0,WeatherDisplay:10.37,2015-03-28 09:57:00,
2015-03-28 03:02:00,46.3,41.1,30.15,NNW,331,0.0,0.0,82,0.00,CLR,SCT,0.00,0.0,WeatherDisplay:10.37,2015-03-28 10:02:00,
2015-03-28 03:07:00,46.3,41.1,30.15,NNW,333,1.0,1.0,82,0.00,CLR,SCT,0.00,0.0,WeatherDisplay:10.37,2015-03-28 10:07:00,
2015-03-28 03:12:00,46.3,41.1,30.15,NNW,333,1.1,1.1,82,0.00,CLR,SCT,0.00,0.0,WeatherDisplay:10.37,2015-03-28 10:12:00,
2015-03-28 03:17:00,46.3,41.1,30.15,NNW,333,0.0,0.0,82,0.00,CLR,SCT,0.00,0.0,WeatherDisplay:10.37,2015-03-28 10:17:00,
2015-03-28 03:22:00,46.4,41.2,30.15,NNW,333,1.1,0.0,82,0.00,CLR,SCT,0.00,0.0,WeatherDisplay:10.37,2015-03-28 10:22:00,
2015-03-28 03:27:00,46.4,40.9,30.14,NNW,333,1.1,1.1,81,0.00,CLR,SCT,0.00,0.0,WeatherDisplay:10.37,2015-03-28 10:27:00,
2015-03-28 03:32:00,46.4,40.9,30.14,NNW,333,0.0,0.0,81,0.00,CLR,SCT,0.00,0.0,WeatherDisplay:10.37,2015-03-28 10:32:00,
2015-03-28 03:37:00,46.4,40.9,30.14,WNW,294,1.1,1.1,81,0.00,CLR,SCT,0.00,0.0,WeatherDisplay:10.37,2015-03-28 10:37:00,
2015-03-28 03:42:00,46.5,40.7,30.15,WNW,294,1.1,0.0,80,0.00,CLR,SCT,0.00,0.0,WeatherDisplay:10.37,2015-03-28 10:42:00,
2015-03-28 03:47:00,46.5,40.7,30.14,WNW,294,0.0,0.0,80,0.00,CLR,SCT,0.00,0.0,WeatherDisplay:10.37,2015-03-28 10:47:00,
2015-03-28 03:52:00,46.6,40.8,30.15,NNE,13,1.1,1.1,80,0.00,CLR,SCT,0.00,0.0,WeatherDisplay:10.37,2015-03-28 10:52:00,
2015-03-28 03:57:00,46.6,40.4,30.15,North,5,2.3,2.3,79,0.00,CLR,SCT,0.00,0.0,WeatherDisplay:10.37,2015-03-28 10:57:00,
2015-03-28 04:02:00,46.5,40.3,30.14,North,5,2.3,2.3,79,0.00,CLR,SCT,0.00,0.0,WeatherDisplay:10.37,2015-03-28 11:02:00,
2015-03-28 04:07:00,46.4,40.6,30.14,North,5,1.1,1.1,80,0.00,CLR,SCT,0.00,0.0,WeatherDisplay:10.37,2015-03-28 11:07:00,
2015-03-28 04:12:00,46.3,40.1,30.15,North,5,1.1,1.1,79,0.00,CLR,SCT,0.00,0.0,WeatherDisplay:10.37,2015-03-28 11:12:00,
2015-03-28 04:17:00,46.3,40.1,30.14,North,5,0.0,0.1,79,0.00,CLR,SCT,0.00,0.0,WeatherDisplay:10.37,2015-03-28 11:17:00,
2015-03-28 04:22:00,46.2,40.0,30.15,North,5,1.1,1.1,79,0.00,CLR,SCT,0.00,0.0,WeatherDisplay:10.37,2015-03-28 11:22:00,
2015-03-28 04:27:00,46.1,39.9,30.15,North,5,0.0,0.1,79,0.00,CLR,SCT,0.00,0.0,WeatherDisplay:10.37,2015-03-28 11:27:00,
2015-03-28 04:32:00,46.1,39.9,30.15,North,5,1.1,1.1,79,0.00,CLR,SCT,0.00,0.0,WeatherDisplay:10.37,2015-03-28 11:32:00,
2015-03-28 04:37:00,46.0,39.9,30.15,North,9,1.1,1.1,79,0.00,CLR,SCT,0.00,0.0,WeatherDisplay:10.37,2015-03-28 11:37:00,
2015-03-28 04:42:00,45.9,39.8,30.15,North,9,0.0,0.0,79,0.00,CLR,SCT,0.00,0.0,WeatherDisplay:10.37,2015-03-28 11:42:00,
2015-03-28 04:47:00,45.9,39.8,30.15,NNE,26,2.3,2.3,79,0.00,CLR,SCT,0.00,0.0,WeatherDisplay:10.37,2015-03-28 11:47:00,
2015-03-28 04:52:00,45.9,39.8,30.15,NNE,26,0.0,0.0,79,0.00,CLR,SCT,0.00,0.0,WeatherDisplay:10.37,2015-03-28 11:52:00,
2015-03-28 04:57:00,45.9,39.8,30.15,NNE,26,0.0,0.0,79,0.00,CLR,SCT,0.00,0.0,WeatherDisplay:10.37,2015-03-28 11:57:00,
2015-03-28 05:02:00,45.9,39.4,30.16,NNE,26,0.0,0.0,78,0.00,CLR,SCT,0.00,0.0,WeatherDisplay:10.37,2015-03-28 12:02:00,
2015-03-28 05:07:00,45.9,39.8,30.16,NNE,26,0.0,0.0,79,0.00,CLR,SCT,0.00,0.0,WeatherDisplay:10.37,2015-03-28 12:07:00,
2015-03-28 05:12:00,45.9,39.4,30.16,NNE,26,0.0,0.1,78,0.00,CLR,SCT,0.00,0.0,WeatherDisplay:10.37,2015-03-28 12:12:00,
2015-03-28 05:17:00,45.9,39.1,30.16,NNE,26,0.0,0.0,77,0.00,CLR,SCT,0.00,0.0,WeatherDisplay:10.37,2015-03-28 12:17:00,
2015-03-28 05:22:00,45.9,39.4,30.17,NNE,26,0.0,0.1,78,0.00,CLR,SCT,0.00,0.0,WeatherDisplay:10.37,2015-03-28 12:22:00,
2015-03-28 05:27:00,45.9,39.4,30.17,NNE,26,1.1,1.1,78,0.00,CLR,SCT,0.00,0.0,WeatherDisplay:10.37,2015-03-28 12:27:00,
2015-03-28 05:32:00,45.8,39.3,30.17,NNE,26,0.0,0.0,78,0.00,CLR,SCT,0.00,0.0,WeatherDisplay:10.37,2015-03-28 12:32:00,
2015-03-28 05:37:00,45.8,39.3,30.17,NNE,26,1.1,0.0,78,0.00,CLR,SCT,0.00,0.0,WeatherDisplay:10.37,2015-03-28 12:37:00,
2015-03-28 05:42:00,45.7,39.2,30.17,NNE,26,1.1,0.0,78,0.00,CLR,SCT,0.00,0.0,WeatherDisplay:10.37,2015-03-28 12:42:00,
2015-03-28 05:47:00,45.5,38.7,30.17,NNE,26,0.0,0.0,77,0.00,CLR,SCT,0.00,0.0,WeatherDisplay:10.37,2015-03-28 12:47:00,
2015-03-28 05:52:00,45.2,38.4,30.17,NNW,348,1.1,1.1,77,0.00,CLR,SCT,0.00,0.0,WeatherDisplay:10.37,2015-03-28 12:52:00,
2015-03-28 05:57:00,44.9,38.1,30.17,NNW,348,1.1,0.0,77,0.00,CLR,SCT,0.00,0.0,WeatherDisplay:10.37,2015-03-28 12:57:00,
2015-03-28 06:02:00,44.8,38.0,30.17,NNW,348,2.3,2.3,77,0.00,CLR,SCT,0.00,0.0,WeatherDisplay:10.37,2015-03-28 13:02:00,
2015-03-28 06:07:00,44.7,37.9,30.17,NNW,348,0.0,0.0,77,0.00,CLR,SCT,0.00,0.0,WeatherDisplay:10.37,2015-03-28 13:07:00,
2015-03-28 06:12:00,44.5,38.1,30.17,NNW,348,2.3,2.3,78,0.00,CLR,SCT,0.00,0.0,WeatherDisplay:10.37,2015-03-28 13:12:00,
2015-03-28 06:17:00,44.5,37.7,30.17,NNW,348,1.1,1.1,77,0.00,CLR,SCT,0.00,0.0,WeatherDisplay:10.37,2015-03-28 13:17:00,
2015-03-28 06:22:00,44.5,38.1,30.17,NNW,348,2.3,2.3,78,0.00,CLR,SCT,0.00,0.0,WeatherDisplay:10.37,2015-03-28 13:22:00,
2015-03-28 06:27:00,44.5,37.7,30.17,NNW,346,2.0,2.0,77,0.00,CLR,SCT,0.00,0.0,WeatherDisplay:10.37,2015-03-28 13:27:00,
2015-03-28 06:32:00,44.6,37.8,30.17,NW,325,2.0,2.0,77,0.00,CLR,SCT,0.00,0.0,WeatherDisplay:10.37,2015-03-28 13:32:00,
2015-03-28 06:37:00,44.7,36.9,30.16,NW,323,3.5,3.5,74,0.00,CLR,SCT,0.00,0.0,WeatherDisplay:10.37,2015-03-28 13:37:00,
2015-03-28 06:42:00,44.6,37.2,30.16,NNW,327,3.5,3.5,75,0.00,CLR,SCT,0.00,0.0,WeatherDisplay:10.37,2015-03-28 13:42:00,
2015-03-28 06:47:00,44.6,37.2,30.16,NW,326,3.5,3.5,75,0.00,CLR,SCT,0.00,0.0,WeatherDisplay:10.37,2015-03-28 13:47:00,
2015-03-28 06:52:00,44.3,37.2,30.17,NNW,328,3.5,3.5,76,0.00,CLR,SCT,0.00,0.0,WeatherDisplay:10.37,2015-03-28 13:52:00,
2015-03-28 06:58:00,44.1,37.0,30.17,NNW,328,2.0,2.0,76,0.00,CLR,SCT,0.00,0.0,WeatherDisplay:10.37,2015-03-28 13:58:00,
2015-03-28 07:03:00,44.1,37.3,30.17,NNW,328,0.0,0.0,77,0.00,CLR,SCT,0.00,0.0,WeatherDisplay:10.37,2015-03-28 14:03:00,
2015-03-28 07:08:00,44.2,37.8,30.17,NNW,328,0.0,0.0,78,0.00,CLR,SCT,0.00,0.0,WeatherDisplay:10.37,2015-03-28 14:08:00,
2015-03-28 07:13:00,44.2,37.4,30.17,NNW,328,0.0,0.0,77,0.00,CLR,SCT,0.00,0.0,WeatherDisplay:10.37,2015-03-28 14:13:00,
2015-03-28 07:18:00,44.3,37.5,30.17,NNW,328,0.0,0.0,77,0.00,CLR,SCT,0.00,0.0,WeatherDisplay:10.37,2015-03-28 14:18:00,
2015-03-28 07:23:00,44.3,37.5,30.17,NNW,328,0.0,0.0,77,0.00,CLR,SCT,0.00,0.0,WeatherDisplay:10.37,2015-03-28 14:23:00,
2015-03-28 07:28:00,44.3,37.5,30.17,NNW,328,0.0,0.0,77,0.00,CLR,SCT,0.00,0.0,WeatherDisplay:10.37,2015-03-28 14:28:00,
2015-03-28 07:33:00,44.2,37.1,30.17,NNW,328,0.0,0.0,76,0.00,CLR,SCT,0.00,0.0,WeatherDisplay:10.37,2015-03-28 14:33:00,
2015-03-28 07:38:00,44.2,37.1,30.17,NNW,328,0.0,0.0,76,0.00,CLR,SCT,0.00,0.0,WeatherDisplay:10.37,2015-03-28 14:38:00,
2015-03-28 07:43:00,44.1,37.0,30.17,NNW,328,0.0,0.0,76,0.00,CLR,SCT,0.00,0.0,WeatherDisplay:10.37,2015-03-28 14:43:00,
2015-03-28 07:48:00,44.1,37.3,30.17,NNW,328,0.0,0.0,77,0.00,CLR,SCT,0.00,0.0,WeatherDisplay:10.37,2015-03-28 14:48:00,
2015-03-28 07:53:00,44.2,37.8,30.17,NNW,328,0.0,0.0,78,0.00,CLR,SCT,0.00,0.0,WeatherDisplay:10.37,2015-03-28 14:53:00,
2015-03-28 07:58:00,44.2,37.1,30.17,NNW,328,0.0,0.0,76,0.00,CLR,SCT,0.00,0.0,WeatherDisplay:10.37,2015-03-28 14:58:00,
2015-03-28 08:03:00,44.3,36.9,30.17,NW,324,2.3,2.3,75,0.00,CLR,SCT,0.00,0.0,WeatherDisplay:10.37,2015-03-28 15:03:00,
2015-03-28 08:08:00,44.5,37.1,30.17,NW,324,0.0,0.0,75,0.00,CLR,SCT,0.00,0.0,WeatherDisplay:10.37,2015-03-28 15:08:00,
2015-03-28 08:13:00,44.6,37.5,30.17,NW,324,1.1,0.0,76,0.00,CLR,SCT,0.00,0.0,WeatherDisplay:10.37,2015-03-28 15:13:00,
2015-03-28 08:18:00,44.8,37.7,30.17,NW,324,2.3,2.3,76,0.00,CLR,SCT,0.00,0.0,WeatherDisplay:10.37,2015-03-28 15:18:00,
2015-03-28 08:23:00,45.1,37.6,30.17,NW,324,1.1,1.1,75,0.00,CLR,SCT,0.00,0.0,WeatherDisplay:10.37,2015-03-28 15:23:00,
2015-03-28 08:28:00,45.4,37.6,30.17,NW,324,1.1,1.1,74,0.00,CLR,SCT,0.00,0.0,WeatherDisplay:10.37,2015-03-28 15:28:00,
2015-03-28 08:33:00,45.8,37.6,30.17,NW,324,1.1,1.1,73,0.00,CLR,SCT,0.00,0.0,WeatherDisplay:10.37,2015-03-28 15:33:00,
2015-03-28 08:38:00,46.2,38.4,30.17,NW,324,2.3,2.3,74,0.00,CLR,SCT,0.00,0.0,WeatherDisplay:10.37,2015-03-28 15:38:00,
2015-03-28 08:43:00,46.5,39.0,30.17,NW,324,1.1,1.1,75,0.00,CLR,SCT,0.00,0.0,WeatherDisplay:10.37,2015-03-28 15:43:00,
2015-03-28 08:48:00,46.9,39.0,30.17,NW,324,1.1,1.1,74,0.00,CLR,SCT,0.00,0.0,WeatherDisplay:10.37,2015-03-28 15:48:00,
2015-03-28 08:53:00,47.2,39.3,30.18,NW,324,1.1,1.1,74,0.00,CLR,SCT,0.00,0.0,WeatherDisplay:10.37,2015-03-28 15:53:00,
2015-03-28 08:58:00,47.7,39.1,30.18,NW,324,0.0,0.0,72,0.00,CLR,SCT,0.00,0.0,WeatherDisplay:10.37,2015-03-28 15:58:00,
2015-03-28 09:03:00,48.2,39.6,30.18,NW,324,2.3,2.3,72,0.00,CLR,SCT,0.00,0.0,WeatherDisplay:10.37,2015-03-28 16:03:00,
2015-03-28 09:08:00,48.7,40.1,30.18,NW,324,1.1,1.1,72,0.00,CLR,SCT,0.00,0.0,WeatherDisplay:10.37,2015-03-28 16:08:00,
2015-03-28 09:13:00,49.2,40.2,30.18,NW,324,1.1,1.1,71,0.00,CLR,SCT,0.00,0.0,WeatherDisplay:10.37,2015-03-28 16:13:00,
2015-03-28 09:18:00,49.6,40.6,30.18,NW,324,1.1,1.1,71,0.00,CLR,SCT,0.00,0.0,WeatherDisplay:10.37,2015-03-28 16:18:00,
2015-03-28 09:23:00,50.2,41.2,30.18,NW,325,3.0,3.0,71,0.00,CLR,SCT,0.00,0.0,WeatherDisplay:10.37,2015-03-28 16:23:00,
2015-03-28 09:28:00,51.3,40.3,30.18,NW,324,2.3,2.3,66,0.00,CLR,SCT,0.00,0.0,WeatherDisplay:10.37,2015-03-28 16:28:00,
2015-03-28 09:33:00,52.2,40.4,30.18,NW,325,3.5,3.5,64,0.00,CLR,SCT,0.00,0.0,WeatherDisplay:10.37,2015-03-28 16:33:00,
2015-03-28 09:38:00,53.1,40.4,30.18,NW,326,3.5,3.5,62,0.00,CLR,SCT,0.00,0.0,WeatherDisplay:10.37,2015-03-28 16:38:00,
2015-03-28 09:43:00,53.9,40.8,30.18,NW,326,2.3,2.3,61,0.00,CLR,SCT,0.00,0.0,WeatherDisplay:10.37,2015-03-28 16:43:00,
2015-03-28 09:48:00,54.6,41.0,30.18,NW,326,1.1,1.1,60,0.00,CLR,SCT,0.00,0.0,WeatherDisplay:10.37,2015-03-28 16:48:00,
2015-03-28 09:53:00,55.2,42.0,30.18,NW,326,1.1,1.1,61,0.00,CLR,SCT,0.00,0.0,WeatherDisplay:10.37,2015-03-28 16:53:00,
2015-03-28 09:58:00,55.8,42.5,30.18,NNW,330,1.1,1.1,61,0.00,CLR,SCT,0.00,0.0,WeatherDisplay:10.37,2015-03-28 16:58:00,
2015-03-28 10:03:00,56.5,42.3,30.19,NNW,330,2.3,2.3,59,0.00,CLR,SCT,0.00,0.0,WeatherDisplay:10.37,2015-03-28 17:03:00,
2015-03-28 10:08:00,57.0,42.8,30.19,North,355,1.1,1.1,59,0.00,CLR,SCT,0.00,0.0,WeatherDisplay:10.37,2015-03-28 17:08:00,
2015-03-28 10:13:00,57.7,43.5,30.19,NNW,341,1.1,1.1,59,0.00,CLR,SCT,0.00,0.0,WeatherDisplay:10.37,2015-03-28 17:13:00,
2015-03-28 10:18:00,58.3,43.1,30.19,NNW,341,1.1,1.1,57,0.00,CLR,SCT,0.00,0.0,WeatherDisplay:10.37,2015-03-28 17:18:00,
2015-03-28 10:23:00,58.8,42.7,30.19,NNW,342,1.1,0.0,55,0.00,CLR,SCT,0.00,0.0,WeatherDisplay:10.37,2015-03-28 17:23:00,
2015-03-28 10:28:00,59.4,41.3,30.19,NNW,342,1.0,1.0,51,0.00,CLR,SCT,0.00,0.0,WeatherDisplay:10.37,2015-03-28 17:28:00,
2015-03-28 10:33:00,60.3,41.6,30.19,NNW,342,0.0,0.0,50,0.00,CLR,SCT,0.00,0.0,WeatherDisplay:10.37,2015-03-28 17:33:00,
2015-03-28 10:38:00,61.3,39.2,30.19,NE,40,2.3,2.3,44,0.00,CLR,SCT,0.00,0.0,WeatherDisplay:10.37,2015-03-28 17:38:00,
2015-03-28 10:43:00,62.4,35.1,30.18,NE,40,2.3,2.3,36,0.00,CLR,SCT,0.00,0.0,WeatherDisplay:10.37,2015-03-28 17:43:00,
2015-03-28 10:48:00,63.7,34.8,30.18,NE,40,1.1,1.1,34,0.00,CLR,SCT,0.00,0.0,WeatherDisplay:10.37,2015-03-28 17:48:00,
2015-03-28 10:53:00,64.7,32.5,30.18,NE,40,1.1,0.0,30,0.00,CLR,SCT,0.00,0.0,WeatherDisplay:10.37,2015-03-28 17:53:00,
2015-03-28 10:58:00,65.5,37.1,30.18,East,98,2.3,2.3,35,0.00,CLR,SCT,0.00,0.0,WeatherDisplay:10.37,2015-03-28 17:58:00,
2015-03-28 11:03:00,66.1,37.6,30.18,ESE,109,1.1,1.1,35,0.00,CLR,SCT,0.00,0.0,WeatherDisplay:10.37,2015-03-28 18:03:00,
2015-03-28 11:08:00,66.4,37.9,30.18,SSE,167,3.0,3.0,35,0.00,CLR,SCT,0.00,0.0,WeatherDisplay:10.37,2015-03-28 18:08:00,
2015-03-28 11:13:00,66.4,37.2,30.18,South,191,2.3,2.3,34,0.00,CLR,SCT,0.00,0.0,WeatherDisplay:10.37,2015-03-28 18:13:00,
2015-03-28 11:18:00,66.7,35.1,30.18,South,191,1.1,1.1,31,0.00,CLR,SCT,0.00,0.0,WeatherDisplay:10.37,2015-03-28 18:18:00,
2015-03-28 11:23:00,67.0,36.9,30.18,ENE,65,3.5,3.5,33,0.00,CLR,SCT,0.00,0.0,WeatherDisplay:10.37,2015-03-28 18:23:00,
2015-03-28 11:28:00,67.4,36.5,30.18,WSW,238,3.5,3.5,32,0.00,CLR,SCT,0.00,0.0,WeatherDisplay:10.37,2015-03-28 18:28:00,
2015-03-28 11:33:00,67.9,36.9,30.18,WSW,238,2.3,2.3,32,0.00,CLR,SCT,0.00,0.0,WeatherDisplay:10.37,2015-03-28 18:33:00,
2015-03-28 11:38:00,68.3,35.6,30.18,SE,128,8.1,8.1,30,0.00,CLR,SCT,0.00,0.0,WeatherDisplay:10.37,2015-03-28 18:38:00,
2015-03-28 11:43:00,68.4,35.7,30.18,ESE,113,3.5,3.5,30,0.00,CLR,SCT,0.00,0.0,WeatherDisplay:10.37,2015-03-28 18:43:00,
2015-03-28 11:48:00,68.8,36.1,30.18,ENE,69,3.5,3.5,30,0.00,CLR,SCT,0.00,0.0,WeatherDisplay:10.37,2015-03-28 18:48:00,
2015-03-28 11:53:00,69.0,37.1,30.18,WNW,297,3.5,3.5,31,0.00,CLR,SCT,0.00,0.0,WeatherDisplay:10.37,2015-03-28 18:53:00,
2015-03-28 11:58:00,69.4,35.7,30.17,ESE,104,6.0,6.0,29,0.00,CLR,SCT,0.00,0.0,WeatherDisplay:10.37,2015-03-28 18:58:00,
2015-03-28 12:03:00,69.8,36.1,30.17,NE,39,3.5,3.5,29,0.00,CLR,SCT,0.00,0.0,WeatherDisplay:10.37,2015-03-28 19:03:00,
2015-03-28 12:08:00,70.2,37.3,30.17,South,186,2.3,2.3,30,0.00,CLR,SCT,0.00,0.0,WeatherDisplay:10.37,2015-03-28 19:08:00,
2015-03-28 12:13:00,70.3,35.6,30.17,NNW,331,1.1,1.1,28,0.00,CLR,SCT,0.00,0.0,WeatherDisplay:10.37,2015-03-28 19:13:00,
2015-03-28 12:18:00,70.3,37.4,30.17,WNW,282,3.5,3.5,30,0.00,CLR,SCT,0.00,0.0,WeatherDisplay:10.37,2015-03-28 19:18:00,
2015-03-28 12:23:00,70.3,35.6,30.17,SW,227,4.6,4.6,28,0.00,CLR,SCT,0.00,0.0,WeatherDisplay:10.37,2015-03-28 19:23:00,
2015-03-28 12:28:00,70.6,35.9,30.17,SE,140,5.8,5.8,28,0.00,CLR,SCT,0.00,0.0,WeatherDisplay:10.37,2015-03-28 19:28:00,
2015-03-28 12:33:00,71.1,36.3,30.17,ESE,120,3.5,3.5,28,0.00,CLR,SCT,0.00,0.0,WeatherDisplay:10.37,2015-03-28 19:33:00,
2015-03-28 12:38:00,71.4,36.6,30.17,ESE,119,3.5,3.5,28,0.00,CLR,SCT,0.00,0.0,WeatherDisplay:10.37,2015-03-28 19:38:00,
2015-03-28 12:43:00,71.6,36.8,30.16,West,269,3.5,3.5,28,0.00,CLR,SCT,0.00,0.0,WeatherDisplay:10.37,2015-03-28 19:43:00,
2015-03-28 12:48:00,71.6,36.8,30.16,WNW,289,3.5,3.5,28,0.00,CLR,SCT,0.00,0.0,WeatherDisplay:10.37,2015-03-28 19:48:00,
2015-03-28 12:53:00,71.2,36.4,30.16,WNW,296,3.5,3.5,28,0.00,CLR,SCT,0.00,0.0,WeatherDisplay:10.37,2015-03-28 19:53:00,
2015-03-28 12:58:00,71.4,35.7,30.16,WNW,297,3.5,3.5,27,0.00,CLR,SCT,0.00,0.0,WeatherDisplay:10.37,2015-03-28 19:58:00,
2015-03-28 13:04:00,71.0,36.2,30.16,WNW,294,3.5,3.5,28,0.00,CLR,SCT,0.00,0.0,WeatherDisplay:10.37,2015-03-28 20:04:00,
2015-03-28 13:09:00,71.1,37.2,30.15,WNW,294,2.3,2.3,29,0.00,CLR,SCT,0.00,0.0,WeatherDisplay:10.37,2015-03-28 20:09:00,
2015-03-28 13:37:00,71.8,36.9,30.14,NW,324,4.0,0.0,28,0.00,OVC,SCT,0.00,0.0,WeatherDisplay:10.37,2015-03-28 20:37:00,
2015-03-28 13:42:00,71.6,36.8,30.14,NW,304,6.9,6.9,28,0.00,CLR,SCT,0.00,0.0,WeatherDisplay:10.37,2015-03-28 20:42:00,
2015-03-28 13:47:00,71.5,37.6,30.14,NW,304,4.0,4.0,29,0.00,CLR,SCT,0.00,0.0,WeatherDisplay:10.37,2015-03-28 20:47:00,
2015-03-28 13:52:00,71.6,36.8,30.14,SSW,213,5.8,5.8,28,0.00,CLR,SCT,0.00,0.0,WeatherDisplay:10.37,2015-03-28 20:52:00,
2015-03-28 13:57:00,72.5,38.4,30.14,West,273,3.5,3.5,29,0.00,CLR,SCT,0.00,0.0,WeatherDisplay:10.37,2015-03-28 20:57:00,
2015-03-28 14:02:00,72.5,36.6,30.13,WNW,299,3.5,3.5,27,0.00,CLR,SCT,0.00,0.0,WeatherDisplay:10.37,2015-03-28 21:02:00,
2015-03-28 14:07:00,72.3,36.4,30.13,North,5,3.5,3.5,27,0.00,CLR,SCT,0.00,0.0,WeatherDisplay:10.37,2015-03-28 21:07:00,
2015-03-28 14:12:00,72.1,38.1,30.13,East,88,3.5,3.5,29,0.00,CLR,SCT,0.00,0.0,WeatherDisplay:10.37,2015-03-28 21:12:00,
2015-03-28 14:17:00,72.4,37.4,30.13,WNW,296,3.5,3.5,28,0.00,CLR,SCT,0.00,0.0,WeatherDisplay:10.37,2015-03-28 21:17:00,
2015-03-28 14:22:00,72.9,36.9,30.13,ESE,109,3.5,3.5,27,0.00,CLR,SCT,0.00,0.0,WeatherDisplay:10.37,2015-03-28 21:22:00,
2015-03-28 14:27:00,73.5,37.5,30.12,WSW,251,3.5,3.5,27,0.00,CLR,SCT,0.00,0.0,WeatherDisplay:10.37,2015-03-28 21:27:00,
2015-03-28 14:32:00,73.9,36.8,30.12,East,95,6.9,6.9,26,0.00,CLR,SCT,0.00,0.0,WeatherDisplay:10.37,2015-03-28 21:32:00,
2015-03-28 14:37:00,74.3,38.1,30.12,WNW,289,3.5,3.5,27,0.00,CLR,SCT,0.00,0.0,WeatherDisplay:10.37,2015-03-28 21:37:00,
2015-03-28 14:42:00,74.6,38.4,30.11,NW,314,3.5,3.5,27,0.00,CLR,SCT,0.00,0.0,WeatherDisplay:10.37,2015-03-28 21:42:00,
2015-03-28 14:47:00,74.1,37.0,30.12,East,101,7.0,7.0,26,0.00,CLR,SCT,0.00,0.0,WeatherDisplay:10.37,2015-03-28 21:47:00,
2015-03-28 14:52:00,74.0,38.8,30.11,WNW,298,8.0,8.0,28,0.00,CLR,SCT,0.00,0.0,WeatherDisplay:10.37,2015-03-28 21:52:00,
2015-03-28 14:57:00,73.3,37.3,30.11,NW,311,4.6,4.6,27,0.00,CLR,SCT,0.00,0.0,WeatherDisplay:10.37,2015-03-28 21:57:00,
2015-03-28 15:02:00,73.9,37.8,30.11,East,99,4.0,4.0,27,0.00,CLR,SCT,0.00,0.0,WeatherDisplay:10.37,2015-03-28 22:02:00,
2015-03-28 15:07:00,74.6,37.4,30.11,SSE,153,3.5,3.5,26,0.00,CLR,SCT,0.00,0.0,WeatherDisplay:10.37,2015-03-28 22:07:00,
2015-03-28 15:12:00,73.9,36.8,30.11,WNW,302,4.6,4.6,26,0.00,CLR,SCT,0.00,0.0,WeatherDisplay:10.37,2015-03-28 22:12:00,
2015-03-28 15:17:00,73.5,36.5,30.11,WNW,290,4.0,4.0,26,0.00,CLR,SCT,0.00,0.0,WeatherDisplay:10.37,2015-03-28 22:17:00,
2015-03-28 15:22:00,73.4,37.4,30.11,NNW,327,2.3,2.3,27,0.00,CLR,SCT,0.00,0.0,WeatherDisplay:10.37,2015-03-28 22:22:00,
2015-03-28 15:27:00,73.8,36.8,30.10,NW,311,3.5,3.5,26,0.00,CLR,SCT,0.00,0.0,WeatherDisplay:10.37,2015-03-28 22:27:00,
2015-03-28 15:32:00,73.1,37.1,30.10,NW,314,3.5,3.5,27,0.00,CLR,SCT,0.00,0.0,WeatherDisplay:10.37,2015-03-28 22:32:00,
2015-03-28 15:37:00,72.8,36.9,30.10,NW,306,3.5,3.5,27,0.00,CLR,SCT,0.00,0.0,WeatherDisplay:10.37,2015-03-28 22:37:00,
2015-03-28 15:42:00,73.1,38.0,30.10,East,99,2.0,2.0,28,0.00,CLR,SCT,0.00,0.0,WeatherDisplay:10.37,2015-03-28 22:42:00,
2015-03-28 15:47:00,73.0,38.9,30.10,SW,228,3.5,3.5,29,0.00,CLR,SCT,0.00,0.0,WeatherDisplay:10.37,2015-03-28 22:47:00,
2015-03-28 15:52:00,72.8,37.8,30.09,NW,308,3.5,3.5,28,0.00,CLR,SCT,0.00,0.0,WeatherDisplay:10.37,2015-03-28 22:52:00,
2015-03-28 15:57:00,72.5,38.4,30.09,WNW,298,3.5,3.5,29,0.00,CLR,SCT,0.00,0.0,WeatherDisplay:10.37,2015-03-28 22:57:00,
2015-03-28 16:02:00,72.6,38.5,30.09,NW,317,6.9,6.9,29,0.00,CLR,SCT,0.00,0.0,WeatherDisplay:10.37,2015-03-28 23:02:00,
2015-03-28 16:07:00,72.1,38.9,30.09,WNW,299,4.6,4.6,30,0.00,CLR,SCT,0.00,0.0,WeatherDisplay:10.37,2015-03-28 23:07:00,
2015-03-28 16:12:00,71.8,38.7,30.09,NW,319,4.6,4.6,30,0.00,CLR,SCT,0.00,0.0,WeatherDisplay:10.37,2015-03-28 23:12:00,
2015-03-28 16:17:00,71.7,37.7,30.09,WNW,302,3.5,3.5,29,0.00,CLR,SCT,0.00,0.0,WeatherDisplay:10.37,2015-03-28 23:17:00,
2015-03-28 16:22:00,71.8,36.0,30.09,NW,309,3.5,3.5,27,0.00,CLR,SCT,0.00,0.0,WeatherDisplay:10.37,2015-03-28 23:22:00,
2015-03-28 16:27:00,71.8,36.9,30.09,NW,306,3.5,3.5,28,0.00,CLR,SCT,0.00,0.0,WeatherDisplay:10.37,2015-03-28 23:27:00,
2015-03-28 16:32:00,71.8,37.8,30.09,NW,311,3.5,3.5,29,0.00,CLR,SCT,0.00,0.0,WeatherDisplay:10.37,2015-03-28 23:32:00,
2015-03-28 16:37:00,71.7,38.6,30.09,South,177,3.5,3.5,30,0.00,CLR,SCT,0.00,0.0,WeatherDisplay:10.37,2015-03-28 23:37:00,
2015-03-28 16:42:00,72.1,39.8,30.09,ENE,67,3.5,3.5,31,0.00,CLR,SCT,0.00,0.0,WeatherDisplay:10.37,2015-03-28 23:42:00,
2015-03-28 16:47:00,72.1,39.8,30.09,South,187,4.6,4.6,31,0.00,CLR,SCT,0.00,0.0,WeatherDisplay:10.37,2015-03-28 23:47:00,
2015-03-28 16:52:00,71.5,40.1,30.09,WNW,300,5.8,5.8,32,0.00,CLR,SCT,0.00,0.0,WeatherDisplay:10.37,2015-03-28 23:52:00,
2015-03-28 16:57:00,70.6,40.1,30.09,NW,304,4.6,4.6,33,0.00,CLR,SCT,0.00,0.0,WeatherDisplay:10.37,2015-03-28 23:57:00,
2015-03-28 17:02:00,70.4,40.7,30.09,WNW,303,4.6,4.6,34,0.00,CLR,SCT,0.00,0.0,WeatherDisplay:10.37,2015-03-29 00:02:00,
2015-03-28 17:07:00,70.1,41.9,30.09,NW,309,3.5,3.5,36,0.00,CLR,SCT,0.00,0.0,WeatherDisplay:10.37,2015-03-29 00:07:00,
2015-03-28 17:12:00,69.6,42.2,30.09,NW,306,2.3,2.3,37,0.00,CLR,SCT,0.00,0.0,WeatherDisplay:10.37,2015-03-29 00:12:00,
2015-03-28 17:17:00,69.6,42.2,30.09,South,180,3.5,3.5,37,0.00,CLR,SCT,0.00,0.0,WeatherDisplay:10.37,2015-03-29 00:17:00,
2015-03-28 17:22:00,69.4,42.0,30.09,NW,309,3.5,3.5,37,0.00,CLR,SCT,0.00,0.0,WeatherDisplay:10.37,2015-03-29 00:22:00,
2015-03-28 17:27:00,68.9,41.5,30.09,NW,304,5.0,5.0,37,0.00,CLR,SCT,0.00,0.0,WeatherDisplay:10.37,2015-03-29 00:27:00,
2015-03-28 17:32:00,68.5,41.2,30.10,NW,305,5.8,5.8,37,0.00,CLR,SCT,0.00,0.0,WeatherDisplay:10.37,2015-03-29 00:32:00,
2015-03-28 17:37:00,68.1,40.8,30.09,NW,305,2.3,2.3,37,0.00,CLR,SCT,0.00,0.0,WeatherDisplay:10.37,2015-03-29 00:37:00,
2015-03-28 17:42:00,67.9,41.3,30.10,NW,305,3.0,3.0,38,0.00,CLR,SCT,0.00,0.0,WeatherDisplay:10.37,2015-03-29 00:42:00,
2015-03-28 17:47:00,67.7,41.8,30.10,NW,316,1.1,1.1,39,0.00,CLR,SCT,0.00,0.0,WeatherDisplay:10.37,2015-03-29 00:47:00,
2015-03-28 17:52:00,67.7,40.5,30.10,WNW,299,3.0,3.0,37,0.00,CLR,SCT,0.00,0.0,WeatherDisplay:10.37,2015-03-29 00:52:00,
2015-03-28 17:57:00,67.5,38.9,30.10,SSE,155,2.3,2.3,35,0.00,CLR,SCT,0.00,0.0,WeatherDisplay:10.37,2015-03-29 00:57:00,
2015-03-28 18:02:00,67.4,38.8,30.10,SSE,155,1.1,1.1,35,0.00,CLR,SCT,0.00,0.0,WeatherDisplay:10.37,2015-03-29 01:02:00,
2015-03-28 18:07:00,67.3,38.7,30.10,NNW,332,1.1,1.1,35,0.00,CLR,SCT,0.00,0.0,WeatherDisplay:10.37,2015-03-29 01:07:00,
2015-03-28 18:12:00,67.2,39.3,30.10,ESE,110,2.3,2.3,36,0.00,CLR,SCT,0.00,0.0,WeatherDisplay:10.37,2015-03-29 01:12:00,
2015-03-28 18:17:00,67.0,41.9,30.10,ESE,110,2.3,2.3,40,0.00,CLR,SCT,0.00,0.0,WeatherDisplay:10.37,2015-03-29 01:17:00,
2015-03-28 18:22:00,66.7,40.9,30.11,ESE,110,1.0,1.0,39,0.00,CLR,SCT,0.00,0.0,WeatherDisplay:10.37,2015-03-29 01:22:00,
2015-03-28 18:27:00,66.3,42.5,30.11,ESE,110,1.1,0.0,42,0.00,CLR,SCT,0.00,0.0,WeatherDisplay:10.37,2015-03-29 01:27:00,
2015-03-28 18:32:00,66.0,43.5,30.11,ESE,110,2.0,2.0,44,0.00,CLR,SCT,0.00,0.0,WeatherDisplay:10.37,2015-03-29 01:32:00,
2015-03-28 18:37:00,65.5,40.5,30.11,ESE,110,0.0,0.0,40,0.00,CLR,SCT,0.00,0.0,WeatherDisplay:10.37,2015-03-29 01:37:00,
2015-03-28 18:42:00,65.1,40.8,30.11,ESE,110,0.0,0.0,41,0.00,CLR,SCT,0.00,0.0,WeatherDisplay:10.37,2015-03-29 01:42:00,
2015-03-28 18:47:00,64.8,41.8,30.11,ESE,110,0.0,0.0,43,0.00,CLR,SCT,0.00,0.0,WeatherDisplay:10.37,2015-03-29 01:47:00,
2015-03-28 18:52:00,64.5,43.3,30.11,ESE,110,0.0,0.0,46,0.00,CLR,SCT,0.00,0.0,WeatherDisplay:10.37,2015-03-29 01:52:00,
2015-03-28 18:57:00,64.1,42.9,30.11,ESE,110,0.0,0.0,46,0.00,CLR,SCT,0.00,0.0,WeatherDisplay:10.37,2015-03-29 01:57:00,
2015-03-28 19:02:00,63.7,41.9,30.11,ESE,110,0.0,0.0,45,0.00,CLR,SCT,0.00,0.0,WeatherDisplay:10.37,2015-03-29 02:02:00,
2015-03-28 19:07:00,63.2,42.1,30.11,ESE,110,0.0,0.0,46,0.00,CLR,SCT,0.00,0.0,WeatherDisplay:10.37,2015-03-29 02:07:00,
2015-03-28 19:12:00,62.8,42.8,30.11,ESE,110,0.0,0.0,48,0.00,CLR,SCT,0.00,0.0,WeatherDisplay:10.37,2015-03-29 02:12:00,
2015-03-28 19:17:00,62.5,43.1,30.11,ESE,110,0.0,0.0,49,0.00,CLR,SCT,0.00,0.0,WeatherDisplay:10.37,2015-03-29 02:17:00,
2015-03-28 19:22:00,62.0,43.7,30.11,ESE,110,0.0,0.0,51,0.00,CLR,SCT,0.00,0.0,WeatherDisplay:10.37,2015-03-29 02:22:00,
2015-03-28 19:27:00,61.5,45.2,30.12,ESE,110,0.0,0.0,55,0.00,CLR,SCT,0.00,0.0,WeatherDisplay:10.37,2015-03-29 02:27:00,
2015-03-28 19:32:00,61.1,44.8,30.11,ESE,110,0.0,0.0,55,0.00,CLR,SCT,0.00,0.0,WeatherDisplay:10.37,2015-03-29 02:32:00,
2015-03-28 19:37:00,60.7,44.9,30.12,ESE,110,0.0,0.0,56,0.00,CLR,SCT,0.00,0.0,WeatherDisplay:10.37,2015-03-29 02:37:00,
2015-03-28 19:42:00,60.3,44.1,30.11,ESE,110,0.0,0.0,55,0.00,CLR,SCT,0.00,0.0,WeatherDisplay:10.37,2015-03-29 02:42:00,
2015-03-28 19:47:00,59.9,43.7,30.12,ESE,110,0.0,0.0,55,0.00,CLR,SCT,0.00,0.0,WeatherDisplay:10.37,2015-03-29 02:47:00,
2015-03-28 19:52:00,59.5,42.8,30.12,ESE,110,0.0,0.0,54,0.00,CLR,SCT,0.00,0.0,WeatherDisplay:10.37,2015-03-29 02:52:00,
2015-03-28 19:57:00,59.0,42.8,30.12,ESE,110,0.0,0.0,55,0.00,CLR,SCT,0.00,0.0,WeatherDisplay:10.37,2015-03-29 02:57:00,
2015-03-28 20:02:00,58.6,42.9,30.12,ESE,110,0.0,0.0,56,0.00,CLR,SCT,0.00,0.0,WeatherDisplay:10.37,2015-03-29 03:02:00,
2015-03-28 20:07:00,58.2,42.6,30.12,ESE,110,0.0,0.0,56,0.00,CLR,SCT,0.00,0.0,WeatherDisplay:10.37,2015-03-29 03:07:00,
2015-03-28 20:12:00,57.6,42.5,30.13,ESE,110,0.0,0.0,57,0.00,CLR,SCT,0.00,0.0,WeatherDisplay:10.37,2015-03-29 03:12:00,
2015-03-28 20:17:00,57.1,42.5,30.12,ESE,110,0.0,0.0,58,0.00,CLR,SCT,0.00,0.0,WeatherDisplay:10.37,2015-03-29 03:17:00,
2015-03-28 20:22:00,56.6,42.4,30.13,ESE,110,0.0,0.0,59,0.00,CLR,SCT,0.00,0.0,WeatherDisplay:10.37,2015-03-29 03:22:00,
2015-03-28 20:27:00,56.2,42.1,30.13,ESE,110,1.1,1.1,59,0.00,CLR,SCT,0.00,0.0,WeatherDisplay:10.37,2015-03-29 03:27:00,
2015-03-28 20:32:00,55.9,41.8,30.13,ESE,110,2.3,2.3,59,0.00,CLR,SCT,0.00,0.0,WeatherDisplay:10.37,2015-03-29 03:32:00,
2015-03-28 20:37:00,55.5,41.4,30.13,ESE,110,1.1,1.1,59,0.00,CLR,SCT,0.00,0.0,WeatherDisplay:10.37,2015-03-29 03:37:00,
2015-03-28 20:42:00,55.1,41.0,30.13,ESE,110,1.1,1.1,59,0.00,CLR,SCT,0.00,0.0,WeatherDisplay:10.37,2015-03-29 03:42:00,
2015-03-28 20:47:00,54.8,40.7,30.13,ESE,110,2.3,2.3,59,0.00,CLR,SCT,0.00,0.0,WeatherDisplay:10.37,2015-03-29 03:47:00,
2015-03-28 20:52:00,54.5,41.3,30.13,ESE,110,2.3,2.3,61,0.00,CLR,SCT,0.00,0.0,WeatherDisplay:10.37,2015-03-29 03:52:00,
2015-03-28 20:57:00,54.1,40.9,30.12,ESE,110,2.3,2.3,61,0.00,CLR,SCT,0.00,0.0,WeatherDisplay:10.37,2015-03-29 03:57:00,
2015-03-28 21:02:00,53.9,41.2,30.13,ESE,110,1.1,0.0,62,0.00,CLR,SCT,0.00,0.0,WeatherDisplay:10.37,2015-03-29 04:02:00,
2015-03-28 21:07:00,53.7,40.6,30.13,ESE,110,0.0,0.0,61,0.00,CLR,SCT,0.00,0.0,WeatherDisplay:10.37,2015-03-29 04:07:00,
2015-03-28 21:12:00,53.5,40.4,30.13,ESE,110,1.1,1.1,61,0.00,CLR,SCT,0.00,0.0,WeatherDisplay:10.37,2015-03-29 04:12:00,
2015-03-28 21:17:00,53.3,39.8,30.13,ESE,110,1.1,0.0,60,0.00,CLR,SCT,0.00,0.0,WeatherDisplay:10.37,2015-03-29 04:17:00,
2015-03-28 21:22:00,53.2,40.5,30.12,ESE,110,1.1,0.0,62,0.00,CLR,SCT,0.00,0.0,WeatherDisplay:10.37,2015-03-29 04:22:00,
2015-03-28 21:27:00,53.1,40.8,30.12,ESE,110,0.0,0.1,63,0.00,CLR,SCT,0.00,0.0,WeatherDisplay:10.37,2015-03-29 04:27:00,
2015-03-28 21:32:00,53.1,40.8,30.13,ESE,110,0.0,0.0,63,0.00,CLR,SCT,0.00,0.0,WeatherDisplay:10.37,2015-03-29 04:32:00,
2015-03-28 21:37:00,53.0,40.7,30.12,ESE,110,0.0,0.1,63,0.00,CLR,SCT,0.00,0.0,WeatherDisplay:10.37,2015-03-29 04:37:00,
2015-03-28 21:42:00,52.9,40.2,30.12,ESE,110,1.1,1.1,62,0.00,CLR,SCT,0.00,0.0,WeatherDisplay:10.37,2015-03-29 04:42:00,
2015-03-28 21:47:00,52.8,40.1,30.12,ESE,110,1.1,0.0,62,0.00,CLR,SCT,0.00,0.0,WeatherDisplay:10.37,2015-03-29 04:47:00,